sensor_id;sensor_type;location;lat;lon;timestamp;P1;durP1;ratioP1;P2;durP2;ratioP2
47659;SDS011;33403;43.608;1.458;2022-12-05T00:00:19;45.77;;;26.73;;
47659;SDS011;33403;43.608;1.458;2022-12-05T00:02:45;49.03;;;27.50;;
47659;SDS011;33403;43.608;1.458;2022-12-05T00:05:11;49.80;;;27.60;;
47659;SDS011;33403;43.608;1.458;2022-12-05T00:07:37;46.70;;;26.73;;
47659;SDS011;33403;43.608;1.458;2022-12-05T00:10:04;53.73;;;28.73;;
47659;SDS011;33403;43.608;1.458;2022-12-05T00:12:30;47.77;;;26.10;;
47659;SDS011;33403;43.608;1.458;2022-12-05T00:14:56;43.87;;;24.80;;
47659;SDS011;33403;43.608;1.458;2022-12-05T00:17:22;45.43;;;25.67;;
47659;SDS011;33403;43.608;1.458;2022-12-05T00:19:48;44.47;;;24.73;;
47659;SDS011;33403;43.608;1.458;2022-12-05T00:22:14;46.77;;;25.30;;
47659;SDS011;33403;43.608;1.458;2022-12-05T00:24:40;48.43;;;26.50;;
47659;SDS011;33403;43.608;1.458;2022-12-05T00:27:07;49.03;;;28.00;;
47659;SDS011;33403;43.608;1.458;2022-12-05T00:29:33;47.17;;;27.07;;
47659;SDS011;33403;43.608;1.458;2022-12-05T00:31:59;48.20;;;28.30;;
47659;SDS011;33403;43.608;1.458;2022-12-05T00:34:25;50.53;;;28.73;;
47659;SDS011;33403;43.608;1.458;2022-12-05T00:36:51;46.83;;;27.30;;
47659;SDS011;33403;43.608;1.458;2022-12-05T00:39:17;43.50;;;26.00;;
47659;SDS011;33403;43.608;1.458;2022-12-05T00:41:43;47.80;;;27.73;;
47659;SDS011;33403;43.608;1.458;2022-12-05T00:44:09;47.60;;;27.00;;
47659;SDS011;33403;43.608;1.458;2022-12-05T00:46:36;46.40;;;27.17;;
47659;SDS011;33403;43.608;1.458;2022-12-05T00:49:03;47.93;;;27.27;;
47659;SDS011;33403;43.608;1.458;2022-12-05T00:51:34;50.23;;;28.27;;
47659;SDS011;33403;43.608;1.458;2022-12-05T00:54:01;45.97;;;27.23;;
47659;SDS011;33403;43.608;1.458;2022-12-05T00:56:28;44.63;;;26.27;;
47659;SDS011;33403;43.608;1.458;2022-12-05T00:58:55;46.73;;;26.10;;
47659;SDS011;33403;43.608;1.458;2022-12-05T01:01:26;39.67;;;23.97;;
47659;SDS011;33403;43.608;1.458;2022-12-05T01:03:53;42.33;;;24.27;;
47659;SDS011;33403;43.608;1.458;2022-12-05T01:06:20;39.93;;;23.40;;
47659;SDS011;33403;43.608;1.458;2022-12-05T01:08:46;42.57;;;24.47;;
47659;SDS011;33403;43.608;1.458;2022-12-05T01:11:16;44.00;;;25.43;;
47659;SDS011;33403;43.608;1.458;2022-12-05T01:13:43;45.70;;;25.47;;
47659;SDS011;33403;43.608;1.458;2022-12-05T01:16:16;44.80;;;25.03;;
47659;SDS011;33403;43.608;1.458;2022-12-05T01:18:42;41.57;;;24.40;;
47659;SDS011;33403;43.608;1.458;2022-12-05T01:21:08;41.30;;;24.13;;
47659;SDS011;33403;43.608;1.458;2022-12-05T01:23:34;43.17;;;24.13;;
47659;SDS011;33403;43.608;1.458;2022-12-05T01:26:03;42.43;;;24.20;;
47659;SDS011;33403;43.608;1.458;2022-12-05T01:28:29;39.03;;;23.17;;
47659;SDS011;33403;43.608;1.458;2022-12-05T01:30:55;39.10;;;23.03;;
47659;SDS011;33403;43.608;1.458;2022-12-05T01:33:21;40.03;;;23.00;;
47659;SDS011;33403;43.608;1.458;2022-12-05T01:35:47;41.00;;;22.87;;
47659;SDS011;33403;43.608;1.458;2022-12-05T01:38:13;38.10;;;23.10;;
47659;SDS011;33403;43.608;1.458;2022-12-05T01:40:40;38.37;;;22.67;;
47659;SDS011;33403;43.608;1.458;2022-12-05T01:43:12;36.47;;;21.73;;
47659;SDS011;33403;43.608;1.458;2022-12-05T01:45:40;38.33;;;21.63;;
47659;SDS011;33403;43.608;1.458;2022-12-05T01:48:27;39.50;;;21.53;;
47659;SDS011;33403;43.608;1.458;2022-12-05T01:50:54;39.23;;;20.83;;
47659;SDS011;33403;43.608;1.458;2022-12-05T01:53:20;40.57;;;23.43;;
47659;SDS011;33403;43.608;1.458;2022-12-05T01:55:47;44.23;;;25.73;;
47659;SDS011;33403;43.608;1.458;2022-12-05T01:58:14;40.03;;;23.63;;
47659;SDS011;33403;43.608;1.458;2022-12-05T02:00:41;41.03;;;24.17;;
47659;SDS011;33403;43.608;1.458;2022-12-05T02:03:08;43.20;;;24.73;;
47659;SDS011;33403;43.608;1.458;2022-12-05T02:05:35;44.40;;;25.60;;
47659;SDS011;33403;43.608;1.458;2022-12-05T02:08:02;44.37;;;24.90;;
47659;SDS011;33403;43.608;1.458;2022-12-05T02:10:29;44.90;;;25.37;;
47659;SDS011;33403;43.608;1.458;2022-12-05T02:12:58;47.23;;;25.67;;
47659;SDS011;33403;43.608;1.458;2022-12-05T02:15:39;42.90;;;25.13;;
47659;SDS011;33403;43.608;1.458;2022-12-05T02:28:39;41.43;;;25.37;;
47659;SDS011;33403;43.608;1.458;2022-12-05T02:36:43;44.17;;;26.07;;
47659;SDS011;33403;43.608;1.458;2022-12-05T02:39:05;40.90;;;24.77;;
47659;SDS011;33403;43.608;1.458;2022-12-05T02:44:02;42.80;;;24.80;;
47659;SDS011;33403;43.608;1.458;2022-12-05T02:46:29;41.83;;;24.20;;
47659;SDS011;33403;43.608;1.458;2022-12-05T02:49:02;41.10;;;23.60;;
47659;SDS011;33403;43.608;1.458;2022-12-05T02:51:29;38.23;;;23.53;;
47659;SDS011;33403;43.608;1.458;2022-12-05T02:53:56;41.30;;;22.93;;
47659;SDS011;33403;43.608;1.458;2022-12-05T02:56:23;38.43;;;23.30;;
47659;SDS011;33403;43.608;1.458;2022-12-05T02:58:51;40.83;;;24.73;;
47659;SDS011;33403;43.608;1.458;2022-12-05T03:01:22;40.70;;;24.23;;
47659;SDS011;33403;43.608;1.458;2022-12-05T03:03:48;42.17;;;23.70;;
47659;SDS011;33403;43.608;1.458;2022-12-05T03:06:17;40.50;;;23.43;;
47659;SDS011;33403;43.608;1.458;2022-12-05T03:08:46;38.63;;;22.93;;
47659;SDS011;33403;43.608;1.458;2022-12-05T03:11:13;37.90;;;22.63;;
47659;SDS011;33403;43.608;1.458;2022-12-05T03:13:44;37.63;;;22.20;;
47659;SDS011;33403;43.608;1.458;2022-12-05T03:16:11;39.23;;;22.53;;
47659;SDS011;33403;43.608;1.458;2022-12-05T03:18:41;37.97;;;22.03;;
47659;SDS011;33403;43.608;1.458;2022-12-05T03:23:39;37.93;;;22.37;;
47659;SDS011;33403;43.608;1.458;2022-12-05T03:31:08;42.03;;;23.90;;
47659;SDS011;33403;43.608;1.458;2022-12-05T03:33:35;45.90;;;24.90;;
47659;SDS011;33403;43.608;1.458;2022-12-05T03:36:04;41.87;;;24.00;;
47659;SDS011;33403;43.608;1.458;2022-12-05T03:38:38;39.50;;;22.57;;
47659;SDS011;33403;43.608;1.458;2022-12-05T03:41:07;38.43;;;22.23;;
47659;SDS011;33403;43.608;1.458;2022-12-05T03:43:45;37.90;;;22.23;;
47659;SDS011;33403;43.608;1.458;2022-12-05T03:46:23;48.60;;;25.03;;
47659;SDS011;33403;43.608;1.458;2022-12-05T03:51:21;38.90;;;21.60;;
47659;SDS011;33403;43.608;1.458;2022-12-05T03:54:07;35.07;;;20.80;;
47659;SDS011;33403;43.608;1.458;2022-12-05T03:56:40;35.40;;;20.30;;
47659;SDS011;33403;43.608;1.458;2022-12-05T03:59:13;35.13;;;20.10;;
47659;SDS011;33403;43.608;1.458;2022-12-05T04:01:41;33.40;;;19.47;;
47659;SDS011;33403;43.608;1.458;2022-12-05T04:04:19;35.60;;;20.37;;
47659;SDS011;33403;43.608;1.458;2022-12-05T04:06:46;33.97;;;19.30;;
47659;SDS011;33403;43.608;1.458;2022-12-05T04:09:24;31.57;;;19.17;;
47659;SDS011;33403;43.608;1.458;2022-12-05T04:11:52;32.13;;;18.23;;
47659;SDS011;33403;43.608;1.458;2022-12-05T04:14:53;33.73;;;19.20;;
47659;SDS011;33403;43.608;1.458;2022-12-05T04:19:49;37.73;;;20.77;;
47659;SDS011;33403;43.608;1.458;2022-12-05T04:22:36;44.53;;;23.10;;
47659;SDS011;33403;43.608;1.458;2022-12-05T04:25:03;32.33;;;18.90;;
47659;SDS011;33403;43.608;1.458;2022-12-05T04:28:09;40.67;;;24.47;;
47659;SDS011;33403;43.608;1.458;2022-12-05T04:30:45;35.13;;;20.43;;
47659;SDS011;33403;43.608;1.458;2022-12-05T04:33:25;33.20;;;19.83;;
47659;SDS011;33403;43.608;1.458;2022-12-05T04:36:02;31.60;;;18.73;;
47659;SDS011;33403;43.608;1.458;2022-12-05T04:38:40;31.93;;;18.53;;
47659;SDS011;33403;43.608;1.458;2022-12-05T04:41:09;29.57;;;18.10;;
47659;SDS011;33403;43.608;1.458;2022-12-05T04:43:37;30.53;;;17.70;;
47659;SDS011;33403;43.608;1.458;2022-12-05T04:46:05;29.13;;;17.50;;
47659;SDS011;33403;43.608;1.458;2022-12-05T04:48:33;29.40;;;17.10;;
47659;SDS011;33403;43.608;1.458;2022-12-05T04:51:00;29.47;;;17.57;;
47659;SDS011;33403;43.608;1.458;2022-12-05T04:53:27;31.57;;;18.40;;
47659;SDS011;33403;43.608;1.458;2022-12-05T04:55:55;35.30;;;19.33;;
47659;SDS011;33403;43.608;1.458;2022-12-05T04:58:23;31.80;;;18.97;;
47659;SDS011;33403;43.608;1.458;2022-12-05T05:00:51;29.53;;;17.93;;
47659;SDS011;33403;43.608;1.458;2022-12-05T05:06:03;33.93;;;18.77;;
47659;SDS011;33403;43.608;1.458;2022-12-05T05:08:29;33.33;;;19.33;;
47659;SDS011;33403;43.608;1.458;2022-12-05T05:13:34;32.70;;;18.73;;
47659;SDS011;33403;43.608;1.458;2022-12-05T05:16:00;29.97;;;17.97;;
47659;SDS011;33403;43.608;1.458;2022-12-05T05:18:26;32.97;;;18.60;;
47659;SDS011;33403;43.608;1.458;2022-12-05T05:20:52;34.37;;;18.97;;
47659;SDS011;33403;43.608;1.458;2022-12-05T05:23:18;33.07;;;18.03;;
47659;SDS011;33403;43.608;1.458;2022-12-05T05:25:44;32.50;;;18.60;;
47659;SDS011;33403;43.608;1.458;2022-12-05T05:28:10;30.57;;;17.33;;
47659;SDS011;33403;43.608;1.458;2022-12-05T05:30:36;29.37;;;17.47;;
47659;SDS011;33403;43.608;1.458;2022-12-05T05:33:02;26.70;;;16.33;;
47659;SDS011;33403;43.608;1.458;2022-12-05T05:35:28;27.43;;;17.07;;
47659;SDS011;33403;43.608;1.458;2022-12-05T05:37:54;28.83;;;16.83;;
47659;SDS011;33403;43.608;1.458;2022-12-05T05:40:20;27.33;;;16.80;;
47659;SDS011;33403;43.608;1.458;2022-12-05T05:42:47;29.90;;;16.97;;
47659;SDS011;33403;43.608;1.458;2022-12-05T05:45:13;27.87;;;17.10;;
47659;SDS011;33403;43.608;1.458;2022-12-05T05:47:40;28.77;;;16.87;;
47659;SDS011;33403;43.608;1.458;2022-12-05T05:50:07;28.63;;;16.57;;
47659;SDS011;33403;43.608;1.458;2022-12-05T05:52:36;28.63;;;17.33;;
47659;SDS011;33403;43.608;1.458;2022-12-05T05:55:03;27.50;;;17.03;;
47659;SDS011;33403;43.608;1.458;2022-12-05T05:57:29;26.47;;;16.20;;
47659;SDS011;33403;43.608;1.458;2022-12-05T05:59:55;28.23;;;16.90;;
47659;SDS011;33403;43.608;1.458;2022-12-05T06:02:21;27.87;;;17.00;;
47659;SDS011;33403;43.608;1.458;2022-12-05T06:04:48;26.77;;;16.57;;
47659;SDS011;33403;43.608;1.458;2022-12-05T06:07:14;26.53;;;16.07;;
47659;SDS011;33403;43.608;1.458;2022-12-05T06:09:40;27.00;;;16.23;;
47659;SDS011;33403;43.608;1.458;2022-12-05T06:12:06;27.37;;;15.60;;
47659;SDS011;33403;43.608;1.458;2022-12-05T06:14:32;26.17;;;15.67;;
47659;SDS011;33403;43.608;1.458;2022-12-05T06:16:58;30.67;;;16.80;;
47659;SDS011;33403;43.608;1.458;2022-12-05T06:19:24;27.90;;;16.90;;
47659;SDS011;33403;43.608;1.458;2022-12-05T06:21:50;29.43;;;17.00;;
47659;SDS011;33403;43.608;1.458;2022-12-05T06:24:16;29.37;;;16.73;;
47659;SDS011;33403;43.608;1.458;2022-12-05T06:26:42;29.57;;;16.67;;
47659;SDS011;33403;43.608;1.458;2022-12-05T06:29:09;28.03;;;17.13;;
47659;SDS011;33403;43.608;1.458;2022-12-05T06:31:35;27.70;;;16.63;;
47659;SDS011;33403;43.608;1.458;2022-12-05T06:34:01;27.20;;;16.00;;
47659;SDS011;33403;43.608;1.458;2022-12-05T06:36:27;25.30;;;15.73;;
47659;SDS011;33403;43.608;1.458;2022-12-05T06:38:57;25.83;;;15.83;;
47659;SDS011;33403;43.608;1.458;2022-12-05T06:41:23;27.40;;;15.67;;
47659;SDS011;33403;43.608;1.458;2022-12-05T06:43:53;26.73;;;16.07;;
47659;SDS011;33403;43.608;1.458;2022-12-05T06:46:20;25.53;;;16.03;;
47659;SDS011;33403;43.608;1.458;2022-12-05T06:48:46;28.60;;;16.23;;
47659;SDS011;33403;43.608;1.458;2022-12-05T06:51:13;27.20;;;16.00;;
47659;SDS011;33403;43.608;1.458;2022-12-05T06:53:39;25.30;;;15.73;;
47659;SDS011;33403;43.608;1.458;2022-12-05T06:56:08;24.73;;;14.93;;
47659;SDS011;33403;43.608;1.458;2022-12-05T06:58:38;25.20;;;15.70;;
47659;SDS011;33403;43.608;1.458;2022-12-05T07:01:04;23.73;;;14.93;;
47659;SDS011;33403;43.608;1.458;2022-12-05T07:03:49;25.13;;;15.00;;
47659;SDS011;33403;43.608;1.458;2022-12-05T07:06:15;23.73;;;14.40;;
47659;SDS011;33403;43.608;1.458;2022-12-05T07:08:42;25.60;;;14.43;;
47659;SDS011;33403;43.608;1.458;2022-12-05T07:11:08;26.67;;;15.67;;
47659;SDS011;33403;43.608;1.458;2022-12-05T07:13:34;27.70;;;16.47;;
47659;SDS011;33403;43.608;1.458;2022-12-05T07:16:01;27.07;;;15.57;;
47659;SDS011;33403;43.608;1.458;2022-12-05T07:18:27;25.40;;;15.67;;
47659;SDS011;33403;43.608;1.458;2022-12-05T07:20:56;28.70;;;15.87;;
47659;SDS011;33403;43.608;1.458;2022-12-05T07:23:23;26.57;;;16.10;;
47659;SDS011;33403;43.608;1.458;2022-12-05T07:25:49;25.20;;;15.90;;
47659;SDS011;33403;43.608;1.458;2022-12-05T07:28:15;27.77;;;16.43;;
47659;SDS011;33403;43.608;1.458;2022-12-05T07:30:41;27.23;;;16.73;;
47659;SDS011;33403;43.608;1.458;2022-12-05T07:33:07;27.80;;;16.60;;
47659;SDS011;33403;43.608;1.458;2022-12-05T07:35:33;34.23;;;18.30;;
47659;SDS011;33403;43.608;1.458;2022-12-05T07:37:59;32.03;;;17.37;;
47659;SDS011;33403;43.608;1.458;2022-12-05T07:40:25;28.20;;;15.73;;
47659;SDS011;33403;43.608;1.458;2022-12-05T07:42:51;21.67;;;13.90;;
47659;SDS011;33403;43.608;1.458;2022-12-05T07:45:17;30.77;;;16.00;;
47659;SDS011;33403;43.608;1.458;2022-12-05T07:47:43;27.63;;;15.80;;
47659;SDS011;33403;43.608;1.458;2022-12-05T07:50:10;28.67;;;14.60;;
47659;SDS011;33403;43.608;1.458;2022-12-05T07:52:36;28.37;;;14.10;;
47659;SDS011;33403;43.608;1.458;2022-12-05T07:55:02;22.43;;;14.10;;
47659;SDS011;33403;43.608;1.458;2022-12-05T07:57:28;25.07;;;14.03;;
47659;SDS011;33403;43.608;1.458;2022-12-05T07:59:55;24.73;;;14.00;;
47659;SDS011;33403;43.608;1.458;2022-12-05T08:02:21;28.07;;;14.73;;
47659;SDS011;33403;43.608;1.458;2022-12-05T08:04:47;26.50;;;14.13;;
47659;SDS011;33403;43.608;1.458;2022-12-05T08:07:13;27.77;;;14.33;;
47659;SDS011;33403;43.608;1.458;2022-12-05T08:09:39;28.03;;;14.20;;
47659;SDS011;33403;43.608;1.458;2022-12-05T08:12:05;22.87;;;14.13;;
47659;SDS011;33403;43.608;1.458;2022-12-05T08:14:31;29.07;;;14.33;;
47659;SDS011;33403;43.608;1.458;2022-12-05T08:16:57;24.73;;;14.70;;
47659;SDS011;33403;43.608;1.458;2022-12-05T08:19:23;24.90;;;14.50;;
47659;SDS011;33403;43.608;1.458;2022-12-05T08:21:49;26.63;;;15.17;;
47659;SDS011;33403;43.608;1.458;2022-12-05T08:24:16;26.70;;;15.60;;
47659;SDS011;33403;43.608;1.458;2022-12-05T08:26:42;26.43;;;15.83;;
47659;SDS011;33403;43.608;1.458;2022-12-05T08:29:09;26.67;;;15.90;;
47659;SDS011;33403;43.608;1.458;2022-12-05T08:31:38;27.37;;;15.93;;
47659;SDS011;33403;43.608;1.458;2022-12-05T08:34:05;28.13;;;15.83;;
47659;SDS011;33403;43.608;1.458;2022-12-05T08:36:31;28.00;;;16.33;;
47659;SDS011;33403;43.608;1.458;2022-12-05T08:38:58;30.27;;;16.63;;
47659;SDS011;33403;43.608;1.458;2022-12-05T08:41:24;30.33;;;17.70;;
47659;SDS011;33403;43.608;1.458;2022-12-05T08:43:53;30.77;;;17.83;;
47659;SDS011;33403;43.608;1.458;2022-12-05T08:46:20;28.43;;;17.33;;
47659;SDS011;33403;43.608;1.458;2022-12-05T08:48:46;28.57;;;16.40;;
47659;SDS011;33403;43.608;1.458;2022-12-05T08:51:12;30.00;;;16.10;;
47659;SDS011;33403;43.608;1.458;2022-12-05T08:53:38;29.07;;;16.30;;
47659;SDS011;33403;43.608;1.458;2022-12-05T08:56:05;27.73;;;15.30;;
47659;SDS011;33403;43.608;1.458;2022-12-05T08:58:31;25.37;;;14.80;;
47659;SDS011;33403;43.608;1.458;2022-12-05T09:01:04;22.93;;;13.90;;
47659;SDS011;33403;43.608;1.458;2022-12-05T09:03:30;23.20;;;14.20;;
47659;SDS011;33403;43.608;1.458;2022-12-05T09:08:31;29.83;;;16.00;;
47659;SDS011;33403;43.608;1.458;2022-12-05T09:10:57;25.00;;;14.70;;
47659;SDS011;33403;43.608;1.458;2022-12-05T09:13:23;20.43;;;12.73;;
47659;SDS011;33403;43.608;1.458;2022-12-05T09:15:49;20.73;;;12.40;;
47659;SDS011;33403;43.608;1.458;2022-12-05T09:18:15;21.83;;;13.50;;
47659;SDS011;33403;43.608;1.458;2022-12-05T09:20:41;22.50;;;13.73;;
47659;SDS011;33403;43.608;1.458;2022-12-05T09:23:07;22.33;;;13.60;;
47659;SDS011;33403;43.608;1.458;2022-12-05T09:25:33;23.20;;;13.50;;
47659;SDS011;33403;43.608;1.458;2022-12-05T09:27:59;25.60;;;13.63;;
47659;SDS011;33403;43.608;1.458;2022-12-05T09:30:25;22.20;;;14.10;;
47659;SDS011;33403;43.608;1.458;2022-12-05T09:32:51;25.10;;;13.77;;
47659;SDS011;33403;43.608;1.458;2022-12-05T09:35:17;20.53;;;13.40;;
47659;SDS011;33403;43.608;1.458;2022-12-05T09:37:44;21.90;;;13.13;;
47659;SDS011;33403;43.608;1.458;2022-12-05T09:40:16;24.13;;;13.80;;
47659;SDS011;33403;43.608;1.458;2022-12-05T09:42:57;22.00;;;13.87;;
47659;SDS011;33403;43.608;1.458;2022-12-05T09:45:28;21.53;;;12.67;;
47659;SDS011;33403;43.608;1.458;2022-12-05T09:48:00;21.80;;;13.93;;
47659;SDS011;33403;43.608;1.458;2022-12-05T09:55:32;22.33;;;12.07;;
47659;SDS011;33403;43.608;1.458;2022-12-05T09:58:00;17.30;;;11.50;;
47659;SDS011;33403;43.608;1.458;2022-12-05T10:00:27;17.17;;;10.67;;
47659;SDS011;33403;43.608;1.458;2022-12-05T10:08:21;12.53;;;9.27;;
47659;SDS011;33403;43.608;1.458;2022-12-05T10:10:56;13.07;;;8.93;;
47659;SDS011;33403;43.608;1.458;2022-12-05T10:16:00;12.73;;;8.47;;
47659;SDS011;33403;43.608;1.458;2022-12-05T10:18:43;17.37;;;9.00;;
47659;SDS011;33403;43.608;1.458;2022-12-05T10:21:13;15.47;;;8.73;;
47659;SDS011;33403;43.608;1.458;2022-12-05T10:26:14;15.77;;;9.20;;
47659;SDS011;33403;43.608;1.458;2022-12-05T10:29:02;13.93;;;9.03;;
47659;SDS011;33403;43.608;1.458;2022-12-05T10:31:32;13.30;;;8.77;;
47659;SDS011;33403;43.608;1.458;2022-12-05T10:34:05;14.57;;;9.17;;
47659;SDS011;33403;43.608;1.458;2022-12-05T10:36:35;14.10;;;8.70;;
47659;SDS011;33403;43.608;1.458;2022-12-05T10:39:01;15.40;;;8.60;;
47659;SDS011;33403;43.608;1.458;2022-12-05T10:41:27;15.70;;;8.97;;
47659;SDS011;33403;43.608;1.458;2022-12-05T10:43:53;11.73;;;8.60;;
47659;SDS011;33403;43.608;1.458;2022-12-05T10:46:21;13.20;;;8.80;;
47659;SDS011;33403;43.608;1.458;2022-12-05T10:48:47;13.07;;;8.97;;
47659;SDS011;33403;43.608;1.458;2022-12-05T10:51:15;17.37;;;8.97;;
47659;SDS011;33403;43.608;1.458;2022-12-05T10:53:43;11.57;;;8.37;;
47659;SDS011;33403;43.608;1.458;2022-12-05T10:58:54;14.50;;;9.17;;
47659;SDS011;33403;43.608;1.458;2022-12-05T11:01:20;14.50;;;8.87;;
47659;SDS011;33403;43.608;1.458;2022-12-05T11:03:54;13.93;;;9.13;;
47659;SDS011;33403;43.608;1.458;2022-12-05T11:06:28;14.00;;;8.93;;
47659;SDS011;33403;43.608;1.458;2022-12-05T11:08:55;14.27;;;8.90;;
47659;SDS011;33403;43.608;1.458;2022-12-05T11:11:24;12.27;;;8.30;;
47659;SDS011;33403;43.608;1.458;2022-12-05T11:13:54;13.30;;;8.50;;
47659;SDS011;33403;43.608;1.458;2022-12-05T11:16:30;14.43;;;8.83;;
47659;SDS011;33403;43.608;1.458;2022-12-05T11:19:26;16.30;;;8.80;;
47659;SDS011;33403;43.608;1.458;2022-12-05T11:21:43;13.90;;;8.43;;
47659;SDS011;33403;43.608;1.458;2022-12-05T11:30:04;12.27;;;8.33;;
47659;SDS011;33403;43.608;1.458;2022-12-05T11:32:30;11.47;;;7.83;;
47659;SDS011;33403;43.608;1.458;2022-12-05T11:40:14;10.23;;;6.73;;
47659;SDS011;33403;43.608;1.458;2022-12-05T11:45:32;9.33;;;6.60;;
47659;SDS011;33403;43.608;1.458;2022-12-05T11:48:12;9.90;;;7.30;;
47659;SDS011;33403;43.608;1.458;2022-12-05T11:53:17;11.37;;;7.13;;
47659;SDS011;33403;43.608;1.458;2022-12-05T11:55:50;9.90;;;6.67;;
47659;SDS011;33403;43.608;1.458;2022-12-05T12:06:28;9.70;;;6.70;;
47659;SDS011;33403;43.608;1.458;2022-12-05T12:11:28;10.63;;;6.87;;
47659;SDS011;33403;43.608;1.458;2022-12-05T12:16:39;10.83;;;6.63;;
47659;SDS011;33403;43.608;1.458;2022-12-05T12:19:15;8.83;;;6.13;;
47659;SDS011;33403;43.608;1.458;2022-12-05T12:39:59;5.70;;;4.30;;
47659;SDS011;33403;43.608;1.458;2022-12-05T12:45:26;8.57;;;4.50;;
47659;SDS011;33403;43.608;1.458;2022-12-05T12:50:30;5.77;;;4.17;;
47659;SDS011;33403;43.608;1.458;2022-12-05T13:03:02;5.33;;;3.60;;
47659;SDS011;33403;43.608;1.458;2022-12-05T13:12:54;4.80;;;3.50;;
47659;SDS011;33403;43.608;1.458;2022-12-05T13:15:23;5.53;;;3.33;;
47659;SDS011;33403;43.608;1.458;2022-12-05T13:17:51;5.47;;;3.80;;
47659;SDS011;33403;43.608;1.458;2022-12-05T13:20:19;5.40;;;3.70;;
47659;SDS011;33403;43.608;1.458;2022-12-05T13:22:47;4.43;;;3.80;;
47659;SDS011;33403;43.608;1.458;2022-12-05T13:25:14;5.37;;;3.70;;
47659;SDS011;33403;43.608;1.458;2022-12-05T13:27:49;6.10;;;3.93;;
47659;SDS011;33403;43.608;1.458;2022-12-05T13:30:18;5.10;;;3.60;;
47659;SDS011;33403;43.608;1.458;2022-12-05T13:32:44;4.63;;;3.50;;
47659;SDS011;33403;43.608;1.458;2022-12-05T13:35:20;4.67;;;3.67;;
47659;SDS011;33403;43.608;1.458;2022-12-05T13:38:29;5.00;;;3.50;;
47659;SDS011;33403;43.608;1.458;2022-12-05T13:41:12;4.53;;;3.80;;
47659;SDS011;33403;43.608;1.458;2022-12-05T13:43:57;5.27;;;3.60;;
47659;SDS011;33403;43.608;1.458;2022-12-05T13:46:28;4.80;;;3.50;;
47659;SDS011;33403;43.608;1.458;2022-12-05T13:49:00;6.00;;;4.10;;
47659;SDS011;33403;43.608;1.458;2022-12-05T13:53:58;6.93;;;4.83;;
47659;SDS011;33403;43.608;1.458;2022-12-05T13:56:26;6.97;;;4.80;;
47659;SDS011;33403;43.608;1.458;2022-12-05T13:59:10;6.20;;;4.38;;
47659;SDS011;33403;43.608;1.458;2022-12-05T14:01:46;6.27;;;4.70;;
47659;SDS011;33403;43.608;1.458;2022-12-05T14:04:38;8.00;;;4.70;;
47659;SDS011;33403;43.608;1.458;2022-12-05T14:07:07;8.93;;;4.97;;
47659;SDS011;33403;43.608;1.458;2022-12-05T14:09:53;7.43;;;4.63;;
47659;SDS011;33403;43.608;1.458;2022-12-05T14:17:40;10.20;;;5.57;;
47659;SDS011;33403;43.608;1.458;2022-12-05T14:28:17;8.00;;;4.67;;
47659;SDS011;33403;43.608;1.458;2022-12-05T14:33:30;5.73;;;4.30;;
47659;SDS011;33403;43.608;1.458;2022-12-05T14:35:57;5.50;;;4.30;;
47659;SDS011;33403;43.608;1.458;2022-12-05T14:38:29;5.57;;;4.33;;
47659;SDS011;33403;43.608;1.458;2022-12-05T14:40:56;5.97;;;4.20;;
47659;SDS011;33403;43.608;1.458;2022-12-05T14:43:36;7.00;;;4.90;;
47659;SDS011;33403;43.608;1.458;2022-12-05T14:46:06;9.60;;;6.23;;
47659;SDS011;33403;43.608;1.458;2022-12-05T14:48:37;8.57;;;5.80;;
47659;SDS011;33403;43.608;1.458;2022-12-05T14:53:49;10.57;;;6.20;;
47659;SDS011;33403;43.608;1.458;2022-12-05T14:56:33;8.70;;;5.80;;
47659;SDS011;33403;43.608;1.458;2022-12-05T14:59:05;11.23;;;6.67;;
47659;SDS011;33403;43.608;1.458;2022-12-05T15:01:40;11.53;;;6.83;;
47659;SDS011;33403;43.608;1.458;2022-12-05T15:04:14;12.73;;;6.70;;
47659;SDS011;33403;43.608;1.458;2022-12-05T15:12:03;11.87;;;6.53;;
47659;SDS011;33403;43.608;1.458;2022-12-05T15:14:29;9.10;;;5.70;;
47659;SDS011;33403;43.608;1.458;2022-12-05T15:16:57;10.40;;;6.33;;
47659;SDS011;33403;43.608;1.458;2022-12-05T15:19:32;8.37;;;5.70;;
47659;SDS011;33403;43.608;1.458;2022-12-05T15:22:05;8.33;;;6.00;;
47659;SDS011;33403;43.608;1.458;2022-12-05T15:24:37;9.57;;;5.63;;
47659;SDS011;33403;43.608;1.458;2022-12-05T15:27:04;8.43;;;5.20;;
47659;SDS011;33403;43.608;1.458;2022-12-05T15:29:30;7.63;;;5.20;;
47659;SDS011;33403;43.608;1.458;2022-12-05T15:37:28;7.93;;;5.23;;
47659;SDS011;33403;43.608;1.458;2022-12-05T15:40:30;7.77;;;4.90;;
47659;SDS011;33403;43.608;1.458;2022-12-05T15:42:54;7.47;;;4.90;;
47659;SDS011;33403;43.608;1.458;2022-12-05T15:45:27;8.37;;;5.40;;
47659;SDS011;33403;43.608;1.458;2022-12-05T15:47:54;8.13;;;5.20;;
47659;SDS011;33403;43.608;1.458;2022-12-05T15:55:19;7.30;;;5.23;;
47659;SDS011;33403;43.608;1.458;2022-12-05T15:58:22;8.73;;;5.50;;
47659;SDS011;33403;43.608;1.458;2022-12-05T16:00:41;8.97;;;5.77;;
47659;SDS011;33403;43.608;1.458;2022-12-05T16:03:11;8.97;;;5.70;;
47659;SDS011;33403;43.608;1.458;2022-12-05T16:05:40;8.50;;;5.80;;
47659;SDS011;33403;43.608;1.458;2022-12-05T16:08:11;8.53;;;5.70;;
47659;SDS011;33403;43.608;1.458;2022-12-05T16:10:37;9.50;;;5.73;;
47659;SDS011;33403;43.608;1.458;2022-12-05T16:13:04;9.57;;;6.10;;
47659;SDS011;33403;43.608;1.458;2022-12-05T16:15:31;9.03;;;5.87;;
47659;SDS011;33403;43.608;1.458;2022-12-05T16:17:58;9.20;;;6.10;;
47659;SDS011;33403;43.608;1.458;2022-12-05T16:20:28;8.87;;;6.17;;
47659;SDS011;33403;43.608;1.458;2022-12-05T16:22:57;9.40;;;6.80;;
47659;SDS011;33403;43.608;1.458;2022-12-05T16:25:32;11.53;;;6.60;;
47659;SDS011;33403;43.608;1.458;2022-12-05T16:28:00;9.63;;;6.87;;
47659;SDS011;33403;43.608;1.458;2022-12-05T16:30:27;10.67;;;6.70;;
47659;SDS011;33403;43.608;1.458;2022-12-05T16:33:12;9.70;;;6.57;;
47659;SDS011;33403;43.608;1.458;2022-12-05T16:35:39;11.80;;;7.23;;
47659;SDS011;33403;43.608;1.458;2022-12-05T16:38:09;15.80;;;7.93;;
47659;SDS011;33403;43.608;1.458;2022-12-05T16:40:35;10.87;;;8.13;;
47659;SDS011;33403;43.608;1.458;2022-12-05T16:43:05;14.93;;;9.33;;
47659;SDS011;33403;43.608;1.458;2022-12-05T16:45:41;12.23;;;8.90;;
47659;SDS011;33403;43.608;1.458;2022-12-05T16:48:14;12.93;;;8.37;;
47659;SDS011;33403;43.608;1.458;2022-12-05T16:50:41;13.83;;;9.13;;
47659;SDS011;33403;43.608;1.458;2022-12-05T16:55:35;13.43;;;8.13;;
47659;SDS011;33403;43.608;1.458;2022-12-05T16:58:02;13.57;;;8.20;;
47659;SDS011;33403;43.608;1.458;2022-12-05T17:00:28;12.77;;;8.20;;
47659;SDS011;33403;43.608;1.458;2022-12-05T17:02:55;13.60;;;9.00;;
47659;SDS011;33403;43.608;1.458;2022-12-05T17:05:22;14.07;;;8.63;;
47659;SDS011;33403;43.608;1.458;2022-12-05T17:07:48;11.97;;;8.47;;
47659;SDS011;33403;43.608;1.458;2022-12-05T17:10:14;13.77;;;8.40;;
47659;SDS011;33403;43.608;1.458;2022-12-05T17:12:41;11.33;;;8.13;;
47659;SDS011;33403;43.608;1.458;2022-12-05T17:15:12;14.00;;;8.07;;
47659;SDS011;33403;43.608;1.458;2022-12-05T17:17:39;9.60;;;7.43;;
47659;SDS011;33403;43.608;1.458;2022-12-05T17:20:05;12.87;;;8.43;;
47659;SDS011;33403;43.608;1.458;2022-12-05T17:22:31;11.87;;;8.20;;
47659;SDS011;33403;43.608;1.458;2022-12-05T17:24:57;12.93;;;8.17;;
47659;SDS011;33403;43.608;1.458;2022-12-05T17:27:24;12.70;;;8.17;;